sensor_id;sensor_type;location;lat;lon;timestamp;pressure;altitude;pressure_sealevel;temperature;humidity
9521;BME280;4798;41.574;23.734;2024-01-27T00:02:09;95848.03;;;2.80;59.63
9521;BME280;4798;41.574;23.734;2024-01-27T00:04:38;95850.81;;;2.79;59.83
9521;BME280;4798;41.574;23.734;2024-01-27T00:07:07;95830.59;;;2.54;59.80
9521;BME280;4798;41.574;23.734;2024-01-27T00:09:36;95882.44;;;2.77;59.80
9521;BME280;4798;41.574;23.734;2024-01-27T00:12:05;95872.38;;;2.81;60.04
9521;BME280;4798;41.574;23.734;2024-01-27T00:14:37;95877.22;;;2.77;60.03
9521;BME280;4798;41.574;23.734;2024-01-27T00:17:06;95887.66;;;2.84;59.88
9521;BME280;4798;41.574;23.734;2024-01-27T00:19:35;95894.94;;;2.69;60.09
9521;BME280;4798;41.574;23.734;2024-01-27T00:22:07;95901.63;;;2.65;60.69
9521;BME280;4798;41.574;23.734;2024-01-27T00:24:36;95900.41;;;2.67;60.85
9521;BME280;4798;41.574;23.734;2024-01-27T00:27:05;95859.41;;;2.41;60.03
9521;BME280;4798;41.574;23.734;2024-01-27T00:29:35;95910.06;;;2.67;60.34
9521;BME280;4798;41.574;23.734;2024-01-27T00:32:04;95854.97;;;2.35;59.78
9521;BME280;4798;41.574;23.734;2024-01-27T00:34:32;95907.03;;;2.70;60.15
9521;BME280;4798;41.574;23.734;2024-01-27T00:37:01;95908.88;;;2.63;60.00
9521;BME280;4798;41.574;23.734;2024-01-27T00:39:31;95924.56;;;2.63;60.02
9521;BME280;4798;41.574;23.734;2024-01-27T00:42:00;95916.69;;;2.69;60.37
9521;BME280;4798;41.574;23.734;2024-01-27T00:44:29;95915.28;;;2.67;59.91
9521;BME280;4798;41.574;23.734;2024-01-27T00:46:59;95905.03;;;2.65;59.95
9521;BME280;4798;41.574;23.734;2024-01-27T00:49:27;95896.00;;;2.54;60.32
9521;BME280;4798;41.574;23.734;2024-01-27T00:51:56;95879.94;;;2.44;60.62
9521;BME280;4798;41.574;23.734;2024-01-27T00:54:25;95902.63;;;2.57;60.74
9521;BME280;4798;41.574;23.734;2024-01-27T00:56:54;95897.00;;;2.60;60.71
9521;BME280;4798;41.574;23.734;2024-01-27T00:59:23;95888.16;;;2.54;60.83
9521;BME280;4798;41.574;23.734;2024-01-27T01:01:51;95886.75;;;2.52;60.90
9521;BME280;4798;41.574;23.734;2024-01-27T01:04:21;95877.09;;;2.52;61.00
9521;BME280;4798;41.574;23.734;2024-01-27T01:06:50;95868.22;;;2.53;60.67
9521;BME280;4798;41.574;23.734;2024-01-27T01:09:19;95876.50;;;2.44;60.82
9521;BME280;4798;41.574;23.734;2024-01-27T01:11:47;95874.09;;;2.42;61.17
9521;BME280;4798;41.574;23.734;2024-01-27T01:14:17;95858.41;;;2.42;60.88
9521;BME280;4798;41.574;23.734;2024-01-27T01:16:45;95876.56;;;2.24;61.68
9521;BME280;4798;41.574;23.734;2024-01-27T01:19:14;95877.78;;;1.82;63.47
9521;BME280;4798;41.574;23.734;2024-01-27T01:21:44;95883.00;;;1.96;63.60
9521;BME280;4798;41.574;23.734;2024-01-27T01:24:12;95881.59;;;1.80;63.63
9521;BME280;4798;41.574;23.734;2024-01-27T01:26:41;95864.91;;;2.14;63.36
9521;BME280;4798;41.574;23.734;2024-01-27T01:29:09;95873.28;;;2.35;62.00
9521;BME280;4798;41.574;23.734;2024-01-27T01:31:40;95859.81;;;2.45;61.70
9521;BME280;4798;41.574;23.734;2024-01-27T01:34:09;95861.38;;;2.59;61.66
9521;BME280;4798;41.574;23.734;2024-01-27T01:36:38;95870.25;;;2.58;61.17
9521;BME280;4798;41.574;23.734;2024-01-27T01:39:09;95874.06;;;2.49;61.23
9521;BME280;4798;41.574;23.734;2024-01-27T01:41:41;95877.09;;;2.52;61.19
9521;BME280;4798;41.574;23.734;2024-01-27T01:44:09;95882.91;;;2.61;60.62
9521;BME280;4798;41.574;23.734;2024-01-27T01:46:38;95876.47;;;2.50;61.39
9521;BME280;4798;41.574;23.734;2024-01-27T01:49:07;95893.41;;;2.41;61.81
9521;BME280;4798;41.574;23.734;2024-01-27T01:51:36;95813.84;;;1.91;62.11
9521;BME280;4798;41.574;23.734;2024-01-27T01:54:05;95883.38;;;2.32;62.30
9521;BME280;4798;41.574;23.734;2024-01-27T01:56:36;95886.22;;;2.04;62.61
9521;BME280;4798;41.574;23.734;2024-01-27T01:59:05;95885.41;;;2.04;63.21
9521;BME280;4798;41.574;23.734;2024-01-27T02:01:34;95840.38;;;1.95;62.19
9521;BME280;4798;41.574;23.734;2024-01-27T02:04:04;95886.59;;;2.27;61.97
9521;BME280;4798;41.574;23.734;2024-01-27T02:06:33;95878.13;;;2.25;61.62
9521;BME280;4798;41.574;23.734;2024-01-27T02:09:01;95872.72;;;2.20;62.44
9521;BME280;4798;41.574;23.734;2024-01-27T02:11:32;95856.03;;;2.21;62.47
9521;BME280;4798;41.574;23.734;2024-01-27T02:14:02;95848.81;;;1.90;63.15
9521;BME280;4798;41.574;23.734;2024-01-27T02:16:31;95856.69;;;1.71;63.67
9521;BME280;4798;41.574;23.734;2024-01-27T02:19:00;95839.97;;;1.85;63.69
9521;BME280;4798;41.574;23.734;2024-01-27T02:21:28;95849.63;;;1.98;62.73
9521;BME280;4798;41.574;23.734;2024-01-27T02:23:58;95848.00;;;1.90;63.46
9521;BME280;4798;41.574;23.734;2024-01-27T02:26:28;95851.63;;;1.96;63.35
9521;BME280;4798;41.574;23.734;2024-01-27T02:28:56;95856.88;;;1.63;64.92
9521;BME280;4798;41.574;23.734;2024-01-27T02:31:25;95821.69;;;1.46;64.16
9521;BME280;4798;41.574;23.734;2024-01-27T02:33:54;95858.66;;;1.62;64.90
9521;BME280;4798;41.574;23.734;2024-01-27T02:36:23;95867.53;;;1.74;64.66
9521;BME280;4798;41.574;23.734;2024-01-27T02:38:52;95862.09;;;1.76;64.73
9521;BME280;4798;41.574;23.734;2024-01-27T02:41:20;95848.25;;;1.82;64.04
9521;BME280;4798;41.574;23.734;2024-01-27T02:43:50;95847.22;;;1.83;64.41
9521;BME280;4798;41.574;23.734;2024-01-27T02:46:19;95831.97;;;1.67;64.36
9521;BME280;4798;41.574;23.734;2024-01-27T02:48:47;95857.88;;;1.75;64.84
9521;BME280;4798;41.574;23.734;2024-01-27T02:51:19;95864.09;;;1.67;64.68
9521;BME280;4798;41.574;23.734;2024-01-27T02:53:48;95835.16;;;1.43;65.96
9521;BME280;4798;41.574;23.734;2024-01-27T02:56:17;95854.03;;;1.32;65.84
9521;BME280;4798;41.574;23.734;2024-01-27T02:58:46;95843.53;;;1.12;68.30
9521;BME280;4798;41.574;23.734;2024-01-27T03:01:16;95877.75;;;1.37;68.19
9521;BME280;4798;41.574;23.734;2024-01-27T03:03:44;95855.66;;;1.46;66.72
9521;BME280;4798;41.574;23.734;2024-01-27T03:06:13;95867.69;;;1.40;66.41
9521;BME280;4798;41.574;23.734;2024-01-27T03:08:42;95856.06;;;1.36;66.74
9521;BME280;4798;41.574;23.734;2024-01-27T03:11:10;95847.00;;;1.39;66.21
9521;BME280;4798;41.574;23.734;2024-01-27T03:13:39;95851.84;;;1.55;65.20
9521;BME280;4798;41.574;23.734;2024-01-27T03:16:12;95856.47;;;1.59;64.83
9521;BME280;4798;41.574;23.734;2024-01-27T03:18:43;95852.84;;;1.54;65.47
9521;BME280;4798;41.574;23.734;2024-01-27T03:21:11;95841.41;;;1.48;65.20
9521;BME280;4798;41.574;23.734;2024-01-27T03:23:40;95841.59;;;1.60;65.31
9521;BME280;4798;41.574;23.734;2024-01-27T03:26:09;95828.75;;;1.71;64.68
9521;BME280;4798;41.574;23.734;2024-01-27T03:28:37;95763.03;;;1.28;65.46
9521;BME280;4798;41.574;23.734;2024-01-27T03:31:06;95815.06;;;1.76;65.07
9521;BME280;4798;41.574;23.734;2024-01-27T03:33:35;95802.19;;;1.81;64.76
9521;BME280;4798;41.574;23.734;2024-01-27T03:36:09;95748.97;;;1.43;64.58
9521;BME280;4798;41.574;23.734;2024-01-27T03:38:38;95803.00;;;1.75;65.38
9521;BME280;4798;41.574;23.734;2024-01-27T03:41:07;95802.03;;;1.56;66.22
9521;BME280;4798;41.574;23.734;2024-01-27T03:43:35;95807.03;;;1.71;65.54
9521;BME280;4798;41.574;23.734;2024-01-27T03:46:04;95824.53;;;1.77;65.64
9521;BME280;4798;41.574;23.734;2024-01-27T03:48:32;95770.28;;;1.33;65.59
9521;BME280;4798;41.574;23.734;2024-01-27T03:51:02;95831.72;;;2.01;65.39
9521;BME280;4798;41.574;23.734;2024-01-27T03:53:32;95760.22;;;1.30;65.17
9521;BME280;4798;41.574;23.734;2024-01-27T03:56:01;95838.94;;;1.27;67.42
9521;BME280;4798;41.574;23.734;2024-01-27T03:58:31;95835.16;;;1.43;67.33
9521;BME280;4798;41.574;23.734;2024-01-27T04:01:00;95831.31;;;1.32;67.56
9521;BME280;4798;41.574;23.734;2024-01-27T04:03:29;95828.50;;;1.27;68.33
9521;BME280;4798;41.574;23.734;2024-01-27T04:05:57;95824.50;;;1.57;66.33
9521;BME280;4798;41.574;23.734;2024-01-27T04:08:26;95840.00;;;1.72;66.57
9521;BME280;4798;41.574;23.734;2024-01-27T04:10:56;95839.16;;;1.32;67.88
9521;BME280;4798;41.574;23.734;2024-01-27T04:13:25;95844.00;;;1.42;67.90
9521;BME280;4798;41.574;23.734;2024-01-27T04:15:53;95837.19;;;1.54;68.26
9521;BME280;4798;41.574;23.734;2024-01-27T04:18:24;95823.69;;;1.70;67.13
9521;BME280;4798;41.574;23.734;2024-01-27T04:20:53;95839.38;;;1.63;67.60
9521;BME280;4798;41.574;23.734;2024-01-27T04:23:21;95816.28;;;1.54;68.13
9521;BME280;4798;41.574;23.734;2024-01-27T04:25:50;95822.91;;;1.76;67.13
9521;BME280;4798;41.574;23.734;2024-01-27T04:28:20;95826.13;;;1.78;67.37
9521;BME280;4798;41.574;23.734;2024-01-27T04:30:48;95820.69;;;1.86;67.94
9521;BME280;4798;41.574;23.734;2024-01-27T04:33:17;95698.19;;;1.06;67.58
9521;BME280;4798;41.574;23.734;2024-01-27T04:35:46;95811.84;;;1.74;67.17
9521;BME280;4798;41.574;23.734;2024-01-27T04:38:15;95823.31;;;1.66;67.54
9521;BME280;4798;41.574;23.734;2024-01-27T04:40:43;95834.94;;;1.90;67.39
9521;BME280;4798;41.574;23.734;2024-01-27T04:43:16;95827.72;;;1.92;66.03
9521;BME280;4798;41.574;23.734;2024-01-27T04:45:47;95629.13;;;0.69;65.82
9521;BME280;4798;41.574;23.734;2024-01-27T04:48:15;95799.16;;;1.90;66.03
9521;BME280;4798;41.574;23.734;2024-01-27T04:50:45;95815.00;;;2.15;65.12
9521;BME280;4798;41.574;23.734;2024-01-27T04:53:13;95807.75;;;2.24;65.11
9521;BME280;4798;41.574;23.734;2024-01-27T04:55:42;95821.25;;;2.14;65.53
9521;BME280;4798;41.574;23.734;2024-01-27T04:58:11;95815.56;;;2.30;64.80
9521;BME280;4798;41.574;23.734;2024-01-27T05:00:40;95813.78;;;2.18;64.96
9521;BME280;4798;41.574;23.734;2024-01-27T05:03:10;95826.91;;;2.05;65.83
9521;BME280;4798;41.574;23.734;2024-01-27T05:05:42;95788.34;;;1.87;65.73
9521;BME280;4798;41.574;23.734;2024-01-27T05:08:11;95813.81;;;2.11;65.76
9521;BME280;4798;41.574;23.734;2024-01-27T05:10:39;95826.66;;;2.26;65.28
9521;BME280;4798;41.574;23.734;2024-01-27T05:13:08;95825.84;;;2.25;65.34
9521;BME280;4798;41.574;23.734;2024-01-27T05:15:36;95832.50;;;2.21;65.60
9521;BME280;4798;41.574;23.734;2024-01-27T05:18:06;95840.97;;;2.17;65.77
9521;BME280;4798;41.574;23.734;2024-01-27T05:20:36;95842.75;;;2.16;66.07
9521;BME280;4798;41.574;23.734;2024-01-27T05:23:04;95834.31;;;2.14;65.79
9521;BME280;4798;41.574;23.734;2024-01-27T05:25:33;95834.94;;;2.03;66.23
9521;BME280;4798;41.574;23.734;2024-01-27T05:28:02;95804.78;;;1.87;66.91
9521;BME280;4798;41.574;23.734;2024-01-27T05:30:30;95827.28;;;2.08;66.88
9521;BME280;4798;41.574;23.734;2024-01-27T05:32:59;95788.53;;;1.92;66.91
9521;BME280;4798;41.574;23.734;2024-01-27T05:35:28;95848.59;;;2.12;66.36
9521;BME280;4798;41.574;23.734;2024-01-27T05:37:58;95825.00;;;2.44;67.00
9521;BME280;4798;41.574;23.734;2024-01-27T05:40:27;95829.00;;;2.47;65.07
9521;BME280;4798;41.574;23.734;2024-01-27T05:42:55;95813.78;;;2.24;65.42
9521;BME280;4798;41.574;23.734;2024-01-27T05:45:24;95847.44;;;2.72;65.49
9521;BME280;4798;41.574;23.734;2024-01-27T05:47:53;95835.56;;;2.76;64.41
9521;BME280;4798;41.574;23.734;2024-01-27T05:50:22;95838.31;;;2.87;64.57
9521;BME280;4798;41.574;23.734;2024-01-27T05:52:51;95818.41;;;2.80;64.30
9521;BME280;4798;41.574;23.734;2024-01-27T05:55:21;95838.28;;;2.94;64.00
9521;BME280;4798;41.574;23.734;2024-01-27T05:57:50;95835.78;;;2.61;65.18
9521;BME280;4798;41.574;23.734;2024-01-27T06:00:18;95784.00;;;2.25;65.37
9521;BME280;4798;41.574;23.734;2024-01-27T06:02:47;95831.38;;;2.68;65.13
9521;BME280;4798;41.574;23.734;2024-01-27T06:05:16;95831.09;;;2.76;65.18
9521;BME280;4798;41.574;23.734;2024-01-27T06:07:44;95799.19;;;2.54;64.82
9521;BME280;4798;41.574;23.734;2024-01-27T06:10:15;95831.72;;;2.72;64.63
9521;BME280;4798;41.574;23.734;2024-01-27T06:12:46;95817.25;;;2.69;65.06
9521;BME280;4798;41.574;23.734;2024-01-27T06:15:15;95829.25;;;2.90;64.42
9521;BME280;4798;41.574;23.734;2024-01-27T06:17:44;95826.34;;;3.04;64.05
9521;BME280;4798;41.574;23.734;2024-01-27T06:20:13;95837.50;;;2.93;64.59
9521;BME280;4798;41.574;23.734;2024-01-27T06:22:43;95840.53;;;2.84;64.88
9521;BME280;4798;41.574;23.734;2024-01-27T06:25:12;95838.75;;;2.78;65.34
9521;BME280;4798;41.574;23.734;2024-01-27T06:27:40;95834.72;;;2.82;65.14
9521;BME280;4798;41.574;23.734;2024-01-27T06:30:12;95835.53;;;2.82;64.73
9521;BME280;4798;41.574;23.734;2024-01-27T06:32:41;95830.09;;;2.77;64.90
9521;BME280;4798;41.574;23.734;2024-01-27T06:35:10;95839.13;;;2.88;64.36
9521;BME280;4798;41.574;23.734;2024-01-27T06:37:38;95836.28;;;2.96;64.83
9521;BME280;4798;41.574;23.734;2024-01-27T06:40:08;95850.59;;;2.93;64.99
9521;BME280;4798;41.574;23.734;2024-01-27T06:42:37;95830.22;;;2.95;65.52
9521;BME280;4798;41.574;23.734;2024-01-27T06:45:06;95825.88;;;2.76;65.65
9521;BME280;4798;41.574;23.734;2024-01-27T06:47:36;95826.13;;;2.68;66.39
9521;BME280;4798;41.574;23.734;2024-01-27T06:50:08;95838.75;;;2.78;66.34
9521;BME280;4798;41.574;23.734;2024-01-27T06:52:36;95819.25;;;2.74;65.72
9521;BME280;4798;41.574;23.734;2024-01-27T06:55:06;95794.41;;;2.45;65.64
9521;BME280;4798;41.574;23.734;2024-01-27T06:57:34;95851.44;;;2.81;66.25
9521;BME280;4798;41.574;23.734;2024-01-27T07:00:04;95854.09;;;2.61;66.63
9521;BME280;4798;41.574;23.734;2024-01-27T07:02:32;95837.41;;;2.55;66.67
9521;BME280;4798;41.574;23.734;2024-01-27T07:05:03;95833.25;;;2.41;66.94
9521;BME280;4798;41.574;23.734;2024-01-27T07:07:32;95840.84;;;2.63;66.21
9521;BME280;4798;41.574;23.734;2024-01-27T07:10:01;95833.34;;;2.66;66.53
9521;BME280;4798;41.574;23.734;2024-01-27T07:12:30;95838.59;;;2.73;65.64
9521;BME280;4798;41.574;23.734;2024-01-27T07:14:59;95828.84;;;2.93;65.46
9521;BME280;4798;41.574;23.734;2024-01-27T07:17:29;95828.66;;;2.81;64.95
9521;BME280;4798;41.574;23.734;2024-01-27T07:19:58;95822.53;;;2.63;65.32
9521;BME280;4798;41.574;23.734;2024-01-27T07:22:28;95842.50;;;2.95;64.73
9521;BME280;4798;41.574;23.734;2024-01-27T07:24:56;95834.66;;;2.95;65.24
9521;BME280;4798;41.574;23.734;2024-01-27T07:27:25;95800.63;;;2.95;64.42
9521;BME280;4798;41.574;23.734;2024-01-27T07:29:54;95829.63;;;3.31;64.03
9521;BME280;4798;41.574;23.734;2024-01-27T07:32:22;95826.47;;;3.47;63.68
9521;BME280;4798;41.574;23.734;2024-01-27T07:34:53;95821.97;;;3.54;62.92
9521;BME280;4798;41.574;23.734;2024-01-27T07:37:21;95813.59;;;3.46;63.07
9521;BME280;4798;41.574;23.734;2024-01-27T07:39:51;95823.03;;;3.78;62.45
9521;BME280;4798;41.574;23.734;2024-01-27T07:42:20;95829.44;;;3.82;62.26
9521;BME280;4798;41.574;23.734;2024-01-27T07:44:49;95708.41;;;2.93;61.65
9521;BME280;4798;41.574;23.734;2024-01-27T07:47:17;95824.31;;;3.94;61.35
9521;BME280;4798;41.574;23.734;2024-01-27T07:49:46;95825.16;;;4.12;60.83
9521;BME280;4798;41.574;23.734;2024-01-27T07:52:16;95836.06;;;3.84;61.79
9521;BME280;4798;41.574;23.734;2024-01-27T07:54:45;95841.38;;;3.53;62.17
9521;BME280;4798;41.574;23.734;2024-01-27T07:57:15;95826.97;;;3.00;63.64
9521;BME280;4798;41.574;23.734;2024-01-27T07:59:44;95834.53;;;3.21;64.37
9521;BME280;4798;41.574;23.734;2024-01-27T08:02:12;95831.22;;;3.63;62.67
9521;BME280;4798;41.574;23.734;2024-01-27T08:04:41;95787.97;;;3.48;62.29
9521;BME280;4798;41.574;23.734;2024-01-27T08:07:10;95831.81;;;3.03;65.53
9521;BME280;4798;41.574;23.734;2024-01-27T08:09:42;95835.63;;;3.38;65.26
9521;BME280;4798;41.574;23.734;2024-01-27T08:12:10;95834.63;;;3.33;66.01
9521;BME280;4798;41.574;23.734;2024-01-27T08:14:40;95802.88;;;2.85;67.55
9521;BME280;4798;41.574;23.734;2024-01-27T08:17:09;95823.25;;;3.14;67.82
9521;BME280;4798;41.574;23.734;2024-01-27T08:19:38;95815.63;;;3.12;67.04
9521;BME280;4798;41.574;23.734;2024-01-27T08:22:07;95818.03;;;3.45;66.18
9521;BME280;4798;41.574;23.734;2024-01-27T08:24:36;95800.34;;;3.34;66.31
9521;BME280;4798;41.574;23.734;2024-01-27T08:27:05;95821.63;;;3.51;65.62
9521;BME280;4798;41.574;23.734;2024-01-27T08:29:34;95701.47;;;2.74;64.78
9521;BME280;4798;41.574;23.734;2024-01-27T08:32:05;95806.81;;;3.38;65.39
9521;BME280;4798;41.574;23.734;2024-01-27T08:34:33;95709.91;;;3.07;65.40
9521;BME280;4798;41.574;23.734;2024-01-27T08:37:02;95792.47;;;3.65;65.05
9521;BME280;4798;41.574;23.734;2024-01-27T08:39:31;95778.56;;;3.09;66.49
9521;BME280;4798;41.574;23.734;2024-01-27T08:42:00;95782.88;;;2.97;66.81
9521;BME280;4798;41.574;23.734;2024-01-27T08:44:28;95785.19;;;3.43;66.81
9521;BME280;4798;41.574;23.734;2024-01-27T08:46:57;95779.88;;;3.49;66.11
9521;BME280;4798;41.574;23.734;2024-01-27T08:49:30;95769.88;;;3.15;67.73
9521;BME280;4798;41.574;23.734;2024-01-27T08:51:58;95777.25;;;4.71;64.19
9521;BME280;4798;41.574;23.734;2024-01-27T08:54:27;95764.38;;;5.52;62.68
9521;BME280;4798;41.574;23.734;2024-01-27T08:56:56;95731.13;;;6.16;61.20
9521;BME280;4798;41.574;23.734;2024-01-27T08:59:25;95758.69;;;7.04;57.54
9521;BME280;4798;41.574;23.734;2024-01-27T09:01:53;95738.84;;;7.80;55.14
9521;BME280;4798;41.574;23.734;2024-01-27T09:04:22;95735.28;;;8.68;53.78
9521;BME280;4798;41.574;23.734;2024-01-27T09:06:52;95736.88;;;9.44;49.24
9521;BME280;4798;41.574;23.734;2024-01-27T09:09:21;95734.31;;;10.23;47.44
9521;BME280;4798;41.574;23.734;2024-01-27T09:11:50;95715.56;;;11.06;46.50
9521;BME280;4798;41.574;23.734;2024-01-27T09:14:18;95656.56;;;10.54;44.57
9521;BME280;4798;41.574;23.734;2024-01-27T09:16:47;95651.84;;;10.76;45.96
9521;BME280;4798;41.574;23.734;2024-01-27T09:19:16;95679.44;;;12.31;42.23
9521;BME280;4798;41.574;23.734;2024-01-27T09:21:44;95707.63;;;12.07;42.88
9521;BME280;4798;41.574;23.734;2024-01-27T09:24:15;95630.66;;;11.67;41.76
9521;BME280;4798;41.574;23.734;2024-01-27T09:26:44;95687.97;;;12.18;41.73
9521;BME280;4798;41.574;23.734;2024-01-27T09:29:12;95681.03;;;12.17;42.93
9521;BME280;4798;41.574;23.734;2024-01-27T09:31:41;95658.00;;;12.66;40.75
9521;BME280;4798;41.574;23.734;2024-01-27T09:34:10;95647.63;;;13.19;39.85
9521;BME280;4798;41.574;23.734;2024-01-27T09:36:39;95684.22;;;13.99;39.56
9521;BME280;4798;41.574;23.734;2024-01-27T09:39:07;95619.78;;;14.21;37.91
9521;BME280;4798;41.574;23.734;2024-01-27T09:41:38;95640.47;;;13.77;39.13
9521;BME280;4798;41.574;23.734;2024-01-27T09:44:07;95628.06;;;13.67;37.46
9521;BME280;4798;41.574;23.734;2024-01-27T09:46:36;95643.69;;;11.83;40.11
9521;BME280;4798;41.574;23.734;2024-01-27T09:49:04;95627.47;;;11.85;41.93
9521;BME280;4798;41.574;23.734;2024-01-27T09:51:34;95628.66;;;12.28;40.88
9521;BME280;4798;41.574;23.734;2024-01-27T09:54:03;95604.97;;;12.85;40.27
9521;BME280;4798;41.574;23.734;2024-01-27T09:56:31;95582.53;;;12.57;41.03
9521;BME280;4798;41.574;23.734;2024-01-27T09:59:05;95541.56;;;13.31;40.61
9521;BME280;4798;41.574;23.734;2024-01-27T10:01:35;95602.28;;;13.86;40.87
9521;BME280;4798;41.574;23.734;2024-01-27T10:04:08;95595.50;;;14.65;39.26
9521;BME280;4798;41.574;23.734;2024-01-27T10:06:37;95616.94;;;14.79;38.46
9521;BME280;4798;41.574;23.734;2024-01-27T10:09:06;95632.97;;;14.08;40.05
9521;BME280;4798;41.574;23.734;2024-01-27T10:11:39;95612.28;;;13.99;39.73
9521;BME280;4798;41.574;23.734;2024-01-27T10:14:12;95636.38;;;15.54;39.12
9521;BME280;4798;41.574;23.734;2024-01-27T10:16:41;95617.63;;;15.40;38.04
9521;BME280;4798;41.574;23.734;2024-01-27T10:19:14;95586.00;;;15.93;38.19
9521;BME280;4798;41.574;23.734;2024-01-27T10:21:45;95599.34;;;17.10;35.39
9521;BME280;4798;41.574;23.734;2024-01-27T10:24:14;95620.28;;;17.97;35.70
9521;BME280;4798;41.574;23.734;2024-01-27T10:26:42;95601.88;;;16.93;36.32
9521;BME280;4798;41.574;23.734;2024-01-27T10:29:12;95604.25;;;18.14;34.47
9521;BME280;4798;41.574;23.734;2024-01-27T10:31:41;95623.03;;;18.06;34.52
9521;BME280;4798;41.574;23.734;2024-01-27T10:34:10;95621.00;;;18.51;32.42
9521;BME280;4798;41.574;23.734;2024-01-27T10:36:43;95622.19;;;18.75;32.79
9521;BME280;4798;41.574;23.734;2024-01-27T10:39:20;95627.56;;;18.92;32.73
9521;BME280;4798;41.574;23.734;2024-01-27T10:41:49;95621.44;;;19.35;30.44
9521;BME280;4798;41.574;23.734;2024-01-27T10:44:20;95567.84;;;19.13;28.59
9521;BME280;4798;41.574;23.734;2024-01-27T10:46:49;95561.72;;;19.38;29.47
9521;BME280;4798;41.574;23.734;2024-01-27T10:49:18;95583.41;;;20.72;27.79
9521;BME280;4798;41.574;23.734;2024-01-27T10:51:53;95580.34;;;21.23;25.91
9521;BME280;4798;41.574;23.734;2024-01-27T10:54:24;95584.13;;;21.43;26.55
9521;BME280;4798;41.574;23.734;2024-01-27T10:56:56;95569.75;;;21.72;25.63
9521;BME280;4798;41.574;23.734;2024-01-27T10:59:27;95552.97;;;21.99;24.60
9521;BME280;4798;41.574;23.734;2024-01-27T11:01:56;95532.06;;;21.96;23.48
9521;BME280;4798;41.574;23.734;2024-01-27T11:04:26;95590.41;;;21.35;24.43
9521;BME280;4798;41.574;23.734;2024-01-27T11:06:57;95559.63;;;20.45;25.15
9521;BME280;4798;41.574;23.734;2024-01-27T11:09:27;95587.97;;;20.04;26.36
9521;BME280;4798;41.574;23.734;2024-01-27T11:11:58;95608.78;;;20.92;26.15
9521;BME280;4798;41.574;23.734;2024-01-27T11:14:29;95580.00;;;20.54;26.00
9521;BME280;4798;41.574;23.734;2024-01-27T11:16:58;95583.13;;;20.36;25.96
9521;BME280;4798;41.574;23.734;2024-01-27T11:19:27;95569.34;;;18.45;26.28
9521;BME280;4798;41.574;23.734;2024-01-27T11:22:04;95537.66;;;17.46;28.83
9521;BME280;4798;41.574;23.734;2024-01-27T11:24:33;95577.81;;;17.60;28.90
9521;BME280;4798;41.574;23.734;2024-01-27T11:27:02;95506.28;;;18.17;28.81
9521;BME280;4798;41.574;23.734;2024-01-27T11:29:33;95585.09;;;17.99;28.94
9521;BME280;4798;41.574;23.734;2024-01-27T11:32:03;95540.44;;;17.94;28.94
9521;BME280;4798;41.574;23.734;2024-01-27T11:34:42;95569.59;;;17.87;29.00
9521;BME280;4798;41.574;23.734;2024-01-27T11:37:15;95579.88;;;18.89;29.51
9521;BME280;4798;41.574;23.734;2024-01-27T11:39:44;95580.97;;;19.23;27.94
9521;BME280;4798;41.574;23.734;2024-01-27T11:42:13;95576.28;;;18.46;28.24
9521;BME280;4798;41.574;23.734;2024-01-27T11:44:44;95597.63;;;17.81;29.73
9521;BME280;4798;41.574;23.734;2024-01-27T11:47:17;95595.31;;;18.75;29.29
9521;BME280;4798;41.574;23.734;2024-01-27T11:49:50;95592.28;;;18.60;28.66
9521;BME280;4798;41.574;23.734;2024-01-27T11:52:21;95577.66;;;18.74;27.69
9521;BME280;4798;41.574;23.734;2024-01-27T11:54:54;95550.38;;;18.33;28.27
9521;BME280;4798;41.574;23.734;2024-01-27T11:57:23;95599.78;;;18.40;28.90
9521;BME280;4798;41.574;23.734;2024-01-27T11:59:54;95572.09;;;17.84;28.58
9521;BME280;4798;41.574;23.734;2024-01-27T12:02:23;95596.81;;;17.50;29.59
9521;BME280;4798;41.574;23.734;2024-01-27T12:04:52;95564.47;;;17.46;29.35
9521;BME280;4798;41.574;23.734;2024-01-27T12:07:21;95591.69;;;18.71;28.83
9521;BME280;4798;41.574;23.734;2024-01-27T12:09:49;95588.13;;;18.36;29.38
9521;BME280;4798;41.574;23.734;2024-01-27T12:12:19;95569.75;;;18.30;28.71
9521;BME280;4798;41.574;23.734;2024-01-27T12:14:49;95557.63;;;18.24;30.08
9521;BME280;4798;41.574;23.734;2024-01-27T12:17:21;95567.53;;;19.23;28.01
9521;BME280;4798;41.574;23.734;2024-01-27T12:19:52;95572.44;;;18.86;27.31
9521;BME280;4798;41.574;23.734;2024-01-27T12:22:23;95551.97;;;19.80;27.53
9521;BME280;4798;41.574;23.734;2024-01-27T12:24:53;95573.22;;;18.95;27.74
9521;BME280;4798;41.574;23.734;2024-01-27T12:27:22;95578.97;;;17.67;28.76
9521;BME280;4798;41.574;23.734;2024-01-27T12:29:51;95568.03;;;17.55;28.91
9521;BME280;4798;41.574;23.734;2024-01-27T12:32:21;95581.94;;;17.44;30.03
9521;BME280;4798;41.574;23.734;2024-01-27T12:34:50;95585.97;;;17.33;29.92
9521;BME280;4798;41.574;23.734;2024-01-27T12:37:21;95570.94;;;17.67;29.75
9521;BME280;4798;41.574;23.734;2024-01-27T12:39:50;95577.03;;;18.29;28.97
9521;BME280;4798;41.574;23.734;2024-01-27T12:42:19;95577.25;;;17.49;29.61
9521;BME280;4798;41.574;23.734;2024-01-27T12:44:48;95557.66;;;17.40;29.21
9521;BME280;4798;41.574;23.734;2024-01-27T12:47:17;95579.94;;;17.49;29.81
9521;BME280;4798;41.574;23.734;2024-01-27T12:49:48;95588.72;;;17.63;28.88
9521;BME280;4798;41.574;23.734;2024-01-27T12:52:17;95549.31;;;17.42;29.03
9521;BME280;4798;41.574;23.734;2024-01-27T12:54:46;95585.56;;;18.96;29.54
9521;BME280;4798;41.574;23.734;2024-01-27T12:57:15;95409.91;;;17.55;28.19
9521;BME280;4798;41.574;23.734;2024-01-27T12:59:44;95576.06;;;18.90;28.23
9521;BME280;4798;41.574;23.734;2024-01-27T13:02:13;95576.25;;;19.20;27.73
9521;BME280;4798;41.574;23.734;2024-01-27T13:04:42;95568.25;;;17.01;29.38
9521;BME280;4798;41.574;23.734;2024-01-27T13:07:12;95588.81;;;18.20;29.23
9521;BME280;4798;41.574;23.734;2024-01-27T13:09:41;95594.59;;;17.74;28.79
9521;BME280;4798;41.574;23.734;2024-01-27T13:12:10;95599.03;;;16.90;30.15
9521;BME280;4798;41.574;23.734;2024-01-27T13:14:39;95587.75;;;17.37;29.36
9521;BME280;4798;41.574;23.734;2024-01-27T13:17:08;95584.81;;;17.47;29.27
9521;BME280;4798;41.574;23.734;2024-01-27T13:19:36;95596.22;;;18.14;29.31
9521;BME280;4798;41.574;23.734;2024-01-27T13:22:05;95620.09;;;16.56;30.86
9521;BME280;4798;41.574;23.734;2024-01-27T13:24:35;95601.84;;;16.30;30.58
9521;BME280;4798;41.574;23.734;2024-01-27T13:27:05;95597.22;;;17.43;29.22
9521;BME280;4798;41.574;23.734;2024-01-27T13:29:35;95593.91;;;16.80;29.71